Nearby METAR Reports

 

KSJC - San Jose, California, USA
Distance from station: NØ 14km
Oppdatert: 18/04/2021 06:53
Klart
Klart
 Vind fra NV
Vind: NV 9 km/h
Temperatur: 13°C
Duggpunkt: 8°C
Fuktighet: 72%
Barometer: 1018.3 hPa
Clouds: Klart
Visibility: 16 km
2021/04/18 04:53 KSJC 180453Z 32005KT 10SM CLR 13/08 A3007 RMK AO2 SLP183 T01330078 $
KNUQ - Moffett Nas/Mtn, California, USA
Distance from station: N 14km
Oppdatert: 14/04/2021 00:40
NOT Current

 
2021/04/13 22:40 KNUQ 132240Z AUTO RMK AO2 PNO PWINO TSNO
 
KPAO - Palo Alto, California, USA
Distance from station: NNV 23km
Oppdatert: 18/04/2021 05:47
NOT Current
Klart
Klart
 Vind fra NV
Vind: NV 11 km/h
Temperatur: 13°C
Duggpunkt: 8°C
Fuktighet: 72%
Barometer: 1017.9 hPa
Clouds: Klart
Visibility: 16 km
2021/04/18 03:47 KPAO 180347Z 32006KT 10SM SKC 13/08 A3006 RMK LAST
KRHV - San Jose/Reid, California, USA
Distance from station: ØNØ 19km
Oppdatert: 18/04/2021 06:55
Klart
Klart
 Vind fra VNV
Vind: VNV 6 km/h
Temperatur: 15°C
Duggpunkt: 7°C
Fuktighet: 59%
Barometer: 1018.6 hPa
Clouds: Klart
Visibility: 16 km
2021/04/18 04:55 KRHV 180455Z 29003KT 10SM SKC 15/07 A3008 RMK LAST
 
KOAK - Oakland, California, USA
Distance from station: NNV 50km
Oppdatert: 18/04/2021 06:53
Few Clouds
Few Clouds
 Vind fra V
Vind: V 7 km/h
Temperatur: 12°C
Duggpunkt: 9°C
Fuktighet: 82%
Barometer: 1018.6 hPa
Clouds: Few Clouds
Visibility: 16 km
Cloud details: Few Clouds 152 m
2021/04/18 04:53 KOAK 180453Z 28004KT 10SM FEW005 12/09 A3008 RMK AO2 SLP184 T01220089
KSQL - San Carlos Airpo, California, USA
Distance from station: NV 34km
Oppdatert: 18/04/2021 07:35
Klart
Klart
 Vind fra N
Vind: N 7 km/h
Temperatur: 12°C
Duggpunkt: 8°C
Fuktighet: 77%
Barometer: 1019 hPa
Clouds: Klart
Visibility: 16 km
2021/04/18 05:35 KSQL 180535Z AUTO 35004KT 10SM CLR 12/08 A3009 RMK AO2
 
KSFO - San Francisco, California, USA
Distance from station: NV 49km
Oppdatert: 18/04/2021 06:56
Few Clouds
Few Clouds
 Vind fra NV
Vind: NV 24 km/h
Temperatur: 11°C
Duggpunkt: 8°C
Fuktighet: 82%
Barometer: 1018.3 hPa
Clouds: Few Clouds
Visibility: 16 km
Cloud details: Few Clouds 91 m
2021/04/18 04:56 KSFO 180456Z 32013KT 10SM FEW003 11/08 A3007 RMK AO2 SLP181 T01110078
KE16 - San Martin, California, USA
Distance from station: ØSØ 43km
Oppdatert: 18/04/2021 07:15

 Vind fra NNV
Vind: NNV 15 km/h
Temperatur: 15°C
Duggpunkt: 6°C
Fuktighet: 55%
Barometer: 1018.6 hPa
Visibility: 16 km
2021/04/18 05:15 KE16 180515Z AUTO 34008KT 10SM 15/06 A3008 RMK AO2 PWINO PNO
 
KWVI - Watsonville, California, USA
Distance from station: SSØ 44km
Oppdatert: 18/04/2021 06:53
Overskyet
Overskyet
 Vind fra Ø
Vind: Ø 6 km/h
Temperatur: 10°C
Duggpunkt: 8°C
Fuktighet: 88%
Barometer: 1019 hPa
Clouds: Overskyet
Visibility: 13 km
Cloud details: Overskyet 213 m
2021/04/18 04:53 KWVI 180453Z AUTO 08003KT 8SM OVC007 10/08 A3009 RMK AO2 SLP190 T01000083
KHAF - Half Moon Bay, California, USA
Distance from station: VNV 50km
Oppdatert: 18/04/2021 07:35
Mist, Few clouds
Mist, Few clouds
 Vind fra calm
Vind: Stille
Temperatur: 9°C
Duggpunkt: 8°C
Fuktighet: 94%
Barometer: 1019.3 hPa
Oversikt: Mist
Clouds: Few Clouds
Visibility: 8 km
Cloud details: Few Clouds 152 m
2021/04/18 05:35 KHAF 180535Z AUTO 00000KT 5SM BR FEW005 09/08 A3010 RMK AO2
 
KHWD - Hayward, California, USA
Distance from station: N 44km
Oppdatert: 18/04/2021 06:54
Klart
Klart
 Vind fra calm
Vind: Stille
Temperatur: 13°C
Duggpunkt: 9°C
Fuktighet: 77%
Barometer: 1018.3 hPa
Clouds: Klart
Visibility: 16 km
2021/04/18 04:54 KHWD 180454Z AUTO 00000KT 10SM CLR 13/09 A3007 RMK AO2 SLP192 T01280089
KLVK - Livermore, California, USA
Distance from station: NNØ 51km
Oppdatert: 18/04/2021 06:53
Klart
Klart
 Vind fra VSV
Vind: VSV 6 km/h
Temperatur: 17°C
Duggpunkt: 6°C
Fuktighet: 49%
Barometer: 1017.6 hPa
Clouds: Klart
Visibility: 16 km
2021/04/18 04:53 KLVK 180453Z AUTO 24003KT 10SM CLR 17/06 A3005 RMK AO2 SLP174 T01670056